Billings, MT

3:06 AM MDT on August 21, 2014 (GMT -0600)
Downtown Billings | Change Station
CLOSE
Current Station
Personal Weather Station
Location: Billings, MT
Elevation: 3127 ft
Nearby Weather Stations

Elev 3127 ft 45.78 °N, 108.50 °W | Updated 28 minutes ago

Overcast
Overcast
62.8 °F
Feels Like 62.8 °F
N
5.6
Wind Variable Wind from WSW
Gusts 8.9 mph

Today
High -- | Low -- °F
--% Chance of Precip.
Yesterday
High -- | Low -- °F
Precip. -- in
6:21 AM 8:11 PM
Waning Crescent, 15% visible
Pressure 29.87 in
Visibility 10.0 miles
Clouds Overcast 9500 ft
Dew Point 58 °F
Humidity 83%
Rainfall -999.00 in
Snow Depth Not available.
UV 0 out of 12
Pollen 7.90 out of 12
Air Quality Not available.
Flu Activity Not available.
METAR KBIL 210853Z 32007KT 10SM -RA OVC095 16/13 A2995 RMK AO2 RAE0757B25 SLP114 P0000 60000 T01560128 53007

More Conditions Fewer Conditions

Pressure 29.87 in
Visibility 10.0 miles
Clouds Overcast 9500 ft
Dew Point 58 °F
Humidity 83%
Rainfall -999.00 in
Snow Depth Not available.
UV 0 out of 12
Pollen 7.90 out of 12
Air Quality Not available.
Flu Activity Not available.
METAR KBIL 210853Z 32007KT 10SM -RA OVC095 16/13 A2995 RMK AO2 RAE0757B25 SLP114 P0000 60000 T01560128 53007

More Conditions Fewer Conditions

10-Day Weather Forecast

Almanac

Astronomy

Aug. 21, 2014 Rise Set
Actual Time 6:21 AM MDT 8:11 PM MDT
Civil Twilight 5:49 AM MDT 8:43 PM MDT
Nautical Twilight 5:10 AM MDT 9:22 PM MDT
Astronomical Twilight 4:28 AM MDT 10:04 PM MDT
Moon 2:49 AM MDT 5:47 PM MDT
Length of Visible Light 14h 53m
Length of Day
13h 50m
Tomorrow will be 2m 59s shorter.
Waning Crescent, 15% of the Moon is Illuminated
Today
Waning Crescent
Aug 25
New
Sep 2
First Quarter
Sep 8
Full
Sep 15
Last Quarter

Today's Extremes

State Highs State Lows

Community

WunderPhotos

Upload Photos

1,745,864 photos uploaded!

Nearby

Snow Depth

Station Depth Elevation
Cole Creek 1 in 7850 ft
Burnt Mountain 0 in 5880 ft
Placer Basin 0 in 8830 ft
Crystal Lake 1 in 6050 ft
White Mill 2 in 8700 ft

Earthquake Activity

City Distance Mag. Time & Date
No recent earthquake activity has been reported nearby.
Minimum magnitude displayed is 2.5.

Coastal Water Temperatures

Place Temperature
No Stations Reporting

Nearby Weather Stations